createdAt,value
2023-02-11T00:04:09.922Z,14.10
2023-02-11T00:09:12.449Z,14.95
2023-02-11T00:14:15.157Z,13.52
2023-02-11T00:19:17.669Z,12.13
2023-02-11T00:24:20.198Z,15.18
2023-02-11T00:29:22.797Z,13.52
2023-02-11T00:34:25.630Z,17.10
2023-02-11T00:39:31.274Z,15.52
2023-02-11T00:44:33.814Z,15.30
2023-02-11T00:49:37.201Z,13.23
2023-02-11T00:54:39.646Z,21.92
2023-02-11T00:59:42.656Z,16.05
2023-02-11T01:04:45.228Z,15.75
2023-02-11T01:09:47.828Z,16.27
2023-02-11T01:14:54.309Z,14.98
2023-02-11T01:19:56.865Z,15.90
2023-02-11T01:24:59.766Z,18.70
2023-02-11T01:30:02.889Z,19.15
2023-02-11T01:35:06.872Z,17.70
2023-02-11T01:40:17.185Z,20.40
2023-02-11T01:45:44.954Z,20.35
2023-02-11T01:50:51.128Z,14.65
2023-02-11T01:56:13.574Z,16.45
2023-02-11T02:01:21.761Z,17.00
2023-02-11T02:06:34.820Z,17.00
2023-02-11T02:11:39.373Z,17.70
2023-02-11T02:16:42.069Z,16.83
2023-02-11T02:22:06.162Z,18.85
2023-02-11T02:27:20.556Z,18.63
2023-02-11T02:32:51.079Z,16.27
2023-02-11T02:38:14.913Z,18.35
2023-02-11T02:43:18.887Z,10.02
2023-02-11T02:48:32.529Z,17.08
2023-02-11T02:53:44.159Z,10.67
2023-02-11T02:59:05.795Z,16.58
2023-02-11T03:04:23.345Z,16.98
2023-02-11T03:09:39.574Z,12.13
2023-02-11T03:14:42.547Z,14.18
2023-02-11T03:19:48.887Z,14.30
2023-02-11T03:24:51.904Z,13.38
2023-02-11T03:30:23.244Z,13.55
2023-02-11T03:35:36.929Z,11.07
2023-02-11T03:40:41.633Z,12.10
2023-02-11T03:45:46.998Z,17.87
2023-02-11T03:50:52.078Z,10.93
2023-02-11T03:55:57.678Z,12.13
2023-02-11T04:01:02.245Z,12.68
2023-02-11T04:06:05.013Z,12.18
2023-02-11T04:11:07.578Z,14.77
2023-02-11T04:16:10.165Z,11.18
2023-02-11T04:21:12.716Z,16.58
2023-02-11T04:26:15.365Z,11.15
2023-02-11T04:31:19.220Z,16.50
2023-02-11T04:36:21.996Z,8.50
2023-02-11T04:41:24.751Z,11.45
2023-02-11T04:46:27.410Z,12.52
2023-02-11T04:51:30.606Z,7.75
2023-02-11T04:56:33.212Z,13.38
2023-02-11T05:01:35.743Z,13.83
2023-02-11T05:06:40.091Z,14.75
2023-02-11T05:11:42.794Z,12.55
2023-02-11T05:16:45.934Z,13.32
2023-02-11T05:22:01.790Z,12.20
2023-02-11T05:27:05.736Z,8.97
2023-02-11T05:32:09.349Z,14.45
2023-02-11T05:37:12.260Z,13.05
2023-02-11T05:42:15.042Z,11.50
2023-02-11T05:47:20.005Z,5.28
2023-02-11T05:52:25.270Z,7.43
2023-02-11T05:57:27.794Z,17.48
2023-02-11T06:02:30.359Z,12.27
2023-02-11T06:07:33.108Z,15.77
2023-02-11T06:12:38.849Z,13.57
2023-02-11T06:17:41.635Z,12.97
2023-02-11T06:22:44.297Z,10.65
2023-02-11T06:27:46.973Z,14.77
2023-02-11T06:32:49.704Z,13.68
2023-02-11T06:37:54.148Z,12.95
2023-02-11T06:42:56.721Z,12.13
2023-02-11T06:47:59.206Z,10.63
2023-02-11T06:53:02.095Z,9.70
2023-02-11T06:58:05.334Z,10.10
2023-02-11T07:03:08.540Z,9.60
2023-02-11T07:08:11.395Z,10.87
2023-02-11T07:13:14.002Z,8.65
2023-02-11T07:18:16.710Z,8.48
2023-02-11T07:23:22.247Z,9.85
2023-02-11T07:28:26.535Z,12.57
2023-02-11T07:33:29.107Z,8.57
2023-02-11T07:38:32.957Z,13.57
2023-02-11T07:43:37.090Z,8.02
2023-02-11T07:48:39.846Z,9.68
2023-02-11T07:53:43.453Z,10.85
2023-02-11T07:58:46.970Z,10.93
2023-02-11T08:03:49.659Z,13.35
2023-02-11T08:08:52.469Z,11.95
2023-02-11T08:13:56.241Z,9.38
2023-02-11T08:19:00.691Z,10.23
2023-02-11T08:24:04.155Z,8.43
2023-02-11T08:29:10.189Z,15.48
2023-02-11T08:34:14.687Z,9.02
2023-02-11T08:39:22.943Z,11.70
2023-02-11T08:44:26.413Z,10.27
2023-02-11T08:49:31.059Z,10.80
2023-02-11T08:54:33.543Z,10.13
2023-02-11T08:59:36.050Z,9.70
2023-02-11T09:04:38.561Z,6.50
2023-02-11T09:09:43.318Z,9.30
2023-02-11T09:14:45.785Z,9.40
2023-02-11T09:19:48.272Z,10.07
2023-02-11T09:24:50.791Z,9.85
2023-02-11T09:29:53.360Z,9.93
2023-02-11T09:34:55.966Z,11.65
2023-02-11T09:39:59.446Z,10.97
2023-02-11T09:45:03.920Z,8.02
2023-02-11T09:50:23.213Z,10.52
2023-02-11T09:55:28.206Z,11.27
2023-02-11T10:00:41.892Z,11.25
2023-02-11T10:05:59.342Z,9.63
2023-02-11T10:11:32.057Z,8.60
2023-02-11T10:16:49.974Z,8.93
2023-02-11T10:22:19.084Z,9.00
2023-02-11T10:27:28.919Z,11.85
2023-02-11T10:32:49.696Z,9.93
2023-02-11T10:37:52.139Z,10.43
2023-02-11T10:42:57.767Z,10.45
2023-02-11T10:48:03.796Z,11.10
2023-02-11T10:53:26.573Z,8.80
2023-02-11T10:58:45.566Z,8.37
2023-02-11T11:03:52.828Z,11.95
2023-02-11T11:08:55.525Z,12.77
2023-02-11T11:14:00.999Z,12.50
2023-02-11T11:19:09.524Z,11.68
2023-02-11T11:24:20.418Z,10.07
2023-02-11T11:29:36.244Z,11.18
2023-02-11T11:34:42.266Z,7.07
2023-02-11T11:39:56.127Z,8.87
2023-02-11T11:45:20.720Z,8.80
2023-02-11T11:50:32.623Z,11.48
2023-02-11T11:55:47.806Z,8.10
2023-02-11T12:01:04.820Z,9.35
2023-02-11T12:06:31.561Z,9.40
2023-02-11T12:11:41.304Z,10.63
2023-02-11T12:16:55.788Z,9.02
2023-02-11T12:22:05.907Z,10.00
2023-02-11T12:27:17.372Z,9.30
2023-02-11T12:32:53.973Z,9.23
2023-02-11T12:38:18.921Z,12.02
2023-02-11T12:43:28.889Z,10.23
2023-02-11T12:48:52.607Z,10.67
2023-02-11T12:54:17.949Z,12.93
2023-02-11T12:59:52.410Z,18.13
2023-02-11T13:05:00.916Z,11.80
2023-02-11T13:10:16.881Z,14.95
2023-02-11T13:15:19.418Z,12.30
2023-02-11T13:20:32.009Z,11.13
2023-02-11T13:25:46.050Z,13.17
2023-02-11T13:30:52.490Z,12.27
2023-02-11T13:35:58.161Z,14.00
2023-02-11T13:41:04.675Z,14.07
2023-02-11T13:46:14.041Z,12.98
2023-02-11T13:51:33.960Z,10.80
2023-02-11T13:56:42.973Z,12.83
2023-02-11T14:02:14.327Z,14.10
2023-02-11T14:07:50.425Z,13.60
2023-02-11T14:13:18.985Z,11.10
2023-02-11T14:18:45.688Z,13.30
2023-02-11T14:23:48.803Z,10.85
2023-02-11T14:29:14.328Z,14.43
2023-02-11T14:34:28.940Z,12.20
2023-02-11T14:39:37.542Z,15.87
2023-02-11T14:44:41.608Z,17.60
2023-02-11T14:49:45.476Z,15.68
2023-02-11T14:54:51.465Z,13.73
2023-02-11T14:59:59.542Z,13.75
2023-02-11T15:05:38.576Z,11.97
2023-02-11T15:10:45.264Z,10.10
2023-02-11T15:15:50.604Z,12.50
2023-02-11T15:20:54.015Z,12.10
2023-02-11T15:25:56.819Z,12.13
2023-02-11T15:31:05.226Z,14.13
2023-02-11T15:36:14.070Z,11.70
2023-02-11T15:41:37.216Z,15.38
2023-02-11T15:46:43.024Z,13.32
2023-02-11T15:51:47.254Z,13.90
2023-02-11T15:56:52.209Z,11.67
2023-02-11T16:01:55.848Z,12.57
2023-02-11T16:06:58.440Z,12.35
2023-02-11T16:12:22.077Z,15.43
2023-02-11T16:17:51.492Z,14.40
2023-02-11T16:22:54.477Z,13.07
2023-02-11T16:27:57.238Z,16.20
2023-02-11T16:32:59.914Z,17.60
2023-02-11T16:38:02.384Z,17.40
2023-02-11T16:43:05.020Z,15.52
2023-02-11T16:48:25.907Z,15.57
2023-02-11T16:53:28.608Z,17.65
2023-02-11T16:58:31.081Z,18.92
2023-02-11T17:03:40.715Z,17.17
2023-02-11T17:08:45.769Z,18.05
2023-02-11T17:13:48.571Z,17.40
2023-02-11T17:18:53.747Z,21.20
2023-02-11T17:23:56.293Z,15.63
2023-02-11T17:29:02.058Z,21.38
2023-02-11T17:34:24.068Z,19.10
2023-02-11T17:39:27.943Z,17.10
2023-02-11T17:44:30.583Z,20.95
2023-02-11T17:49:33.256Z,17.42
2023-02-11T17:54:35.930Z,22.05
2023-02-11T17:59:39.449Z,18.08
2023-02-11T18:04:42.292Z,19.37
2023-02-11T18:09:44.996Z,19.52
2023-02-11T18:14:48.326Z,19.33
2023-02-11T18:19:51.002Z,18.55
2023-02-11T18:24:56.337Z,20.58
2023-02-11T18:29:59.442Z,25.40
2023-02-11T18:35:02.041Z,18.67
2023-02-11T18:40:12.105Z,22.88
2023-02-11T18:45:15.896Z,19.90
2023-02-11T18:50:18.906Z,24.55
2023-02-11T18:55:25.783Z,21.03
2023-02-11T19:00:28.378Z,25.98
2023-02-11T19:05:33.688Z,22.25
2023-02-11T19:10:39.533Z,20.67
2023-02-11T19:15:44.048Z,23.75
2023-02-11T19:20:46.528Z,22.13
2023-02-11T19:25:54.939Z,23.15
2023-02-11T19:30:57.700Z,27.17
2023-02-11T19:36:05.476Z,25.15
2023-02-11T19:41:12.634Z,23.77
2023-02-11T19:46:16.327Z,17.37
2023-02-11T19:51:21.229Z,24.75
2023-02-11T19:56:23.791Z,21.95
2023-02-11T20:01:27.099Z,25.85
2023-02-11T20:06:31.503Z,23.63
2023-02-11T20:11:35.133Z,24.73
2023-02-11T20:16:48.022Z,24.60
2023-02-11T20:21:55.985Z,26.98
2023-02-11T20:27:01.860Z,26.23
2023-02-11T20:32:05.646Z,23.95
2023-02-11T20:37:08.648Z,22.57
2023-02-11T20:42:12.309Z,27.52
2023-02-11T20:47:14.632Z,25.45
2023-02-11T20:52:17.169Z,26.75
2023-02-11T20:57:19.754Z,26.02
2023-02-11T21:02:24.680Z,29.40
2023-02-11T21:07:29.649Z,24.25
2023-02-11T21:12:32.117Z,24.88
2023-02-11T21:17:34.756Z,25.23
2023-02-11T21:22:37.340Z,22.30
2023-02-11T21:27:40.059Z,29.00
2023-02-11T21:32:42.724Z,20.52
2023-02-11T21:48:26.905Z,22.38
2023-02-11T21:53:29.392Z,21.03
2023-02-11T21:58:32.147Z,22.42
2023-02-11T22:03:34.565Z,24.25
2023-02-11T22:08:38.125Z,25.02
2023-02-11T22:13:42.232Z,24.60
2023-02-11T22:18:46.647Z,22.03
2023-02-11T22:23:50.647Z,13.48
2023-02-11T22:28:53.967Z,19.60
2023-02-11T22:33:57.849Z,19.55
2023-02-11T22:39:05.669Z,22.88
2023-02-11T22:44:09.917Z,22.27
2023-02-11T22:49:14.966Z,20.08
2023-02-11T22:54:19.379Z,21.63
2023-02-11T22:59:21.974Z,13.02
2023-02-11T23:04:27.504Z,24.17
2023-02-11T23:09:30.671Z,19.77
2023-02-11T23:14:33.242Z,14.18
2023-02-11T23:19:37.953Z,18.15
2023-02-11T23:24:40.503Z,23.13
2023-02-11T23:29:43.082Z,20.85
2023-02-11T23:34:45.783Z,16.57
2023-02-11T23:39:48.259Z,20.23
2023-02-11T23:44:50.710Z,13.43
2023-02-11T23:49:53.248Z,13.02
2023-02-11T23:54:55.645Z,19.70
